Time;durP1;ratioP1;P1;durP2;ratioP2;P2;SDS_P1;SDS_P2;PMS_P1;PMS_P2;Temp;Humidity;BMP_temperature;BMP_pressure;BME280_temperature;BME280_humidity;BME280_pressure;Samples;Min_cycle;Max_cycle;Signal;HPM_P1;HPM_P2
2024/01/03 00:01:19;;;;;;;14.75;3.53;;;;;;;-146.58;100.00;69501.63;5030745;28;20018;-58
2024/01/03 00:03:44;;;;;;;12.50;3.55;;;;;;;-146.58;100.00;69501.63;5028863;28;20381;-58
2024/01/03 00:06:10;;;;;;;21.15;5.22;;;;;;;-146.58;100.00;69501.63;5040647;28;20033;-58
2024/01/03 00:08:38;;;;;;;18.20;4.47;;;;;;;-146.58;100.00;69501.63;5050555;28;20028;-58
2024/01/03 00:11:04;;;;;;;10.52;3.05;;;;;;;-146.58;100.00;69501.63;5048883;28;20052;-58
2024/01/03 00:13:29;;;;;;;13.82;4.65;;;;;;;-146.58;100.00;69501.63;5050047;28;20396;-58
2024/01/03 00:16:01;;;;;;;19.00;4.22;;;;;;;-146.58;100.00;69501.63;5049079;28;20116;-58
2024/01/03 00:18:35;;;;;;;9.85;5.30;;;;;;;-146.58;100.00;69501.63;5052042;28;20388;-58
2024/01/03 00:21:01;;;;;;;7.47;2.45;;;;;;;-146.58;100.00;69501.63;5047323;28;20393;-58
2024/01/03 00:23:36;;;;;;;10.20;3.47;;;;;;;-146.58;100.00;69501.63;5034080;28;20021;-58
2024/01/03 00:26:01;;;;;;;19.98;4.50;;;;;;;-146.58;100.00;69501.63;5032609;28;20050;-58
2024/01/03 00:28:27;;;;;;;22.88;7.20;;;;;;;-146.58;100.00;69501.63;5034157;28;20112;-58
2024/01/03 00:30:52;;;;;;;20.58;5.50;;;;;;;-146.58;100.00;69501.63;5032880;28;20042;-58
2024/01/03 00:33:18;;;;;;;14.43;5.10;;;;;;;-146.58;100.00;69501.63;5033993;28;20029;-57
2024/01/03 00:35:44;;;;;;;11.32;3.60;;;;;;;-146.58;100.00;69501.63;5037257;28;20227;-58
2024/01/03 00:38:10;;;;;;;19.85;5.60;;;;;;;-146.58;100.00;69501.63;5053813;28;20040;-58
2024/01/03 00:40:50;;;;;;;20.33;7.30;;;;;;;-146.58;100.00;69501.63;5051811;28;20041;-58
2024/01/03 00:43:15;;;;;;;21.70;4.93;;;;;;;-146.58;100.00;69501.63;5054248;28;20021;-58
2024/01/03 00:45:40;;;;;;;13.48;3.00;;;;;;;-146.58;100.00;69501.63;5052247;28;20045;-58
2024/01/03 00:48:06;;;;;;;11.95;3.45;;;;;;;-146.58;100.00;69501.63;5053622;28;20024;-59
2024/01/03 00:50:32;;;;;;;17.35;3.08;;;;;;;-146.58;100.00;69501.63;5046327;28;20115;-59
2024/01/03 00:52:57;;;;;;;14.43;5.78;;;;;;;-146.58;100.00;69501.63;5033992;28;20029;-59
2024/01/03 00:55:22;;;;;;;15.65;5.55;;;;;;;-146.58;100.00;69501.63;5032033;28;20041;-59
2024/01/03 00:57:48;;;;;;;19.83;4.65;;;;;;;-146.58;100.00;69501.63;5033663;28;20029;-59
2024/01/03 01:00:13;;;;;;;25.88;4.82;;;;;;;-146.58;100.00;69501.63;5032150;28;20038;-59
2024/01/03 01:02:39;;;;;;;20.05;4.53;;;;;;;-146.58;100.00;69501.63;5033219;28;20037;-58
2024/01/03 01:05:04;;;;;;;25.27;8.63;;;;;;;-146.58;100.00;69501.63;5032480;28;20045;-58
2024/01/03 01:07:30;;;;;;;13.60;6.63;;;;;;;-146.58;100.00;69501.63;5052638;28;20079;-59
2024/01/03 01:09:55;;;;;;;18.00;4.40;;;;;;;-146.58;100.00;69501.63;5051498;28;20041;-58
2024/01/03 01:12:21;;;;;;;25.40;6.57;;;;;;;-146.58;100.00;69501.63;5053208;28;20029;-59
2024/01/03 01:14:46;;;;;;;21.23;6.47;;;;;;;-146.58;100.00;69501.63;5051853;28;20041;-59
2024/01/03 01:17:11;;;;;;;20.33;5.30;;;;;;;-146.58;100.00;69501.63;5053339;28;20029;-58
2024/01/03 01:19:37;;;;;;;20.52;6.75;;;;;;;-146.58;100.00;69501.63;5039367;28;20451;-58
2024/01/03 01:22:02;;;;;;;18.25;4.97;;;;;;;-146.58;100.00;69501.63;5033613;28;20033;-59
2024/01/03 01:24:28;;;;;;;28.30;6.80;;;;;;;-146.58;100.00;69501.63;5031233;28;20065;-59
2024/01/03 01:26:53;;;;;;;18.23;4.60;;;;;;;-146.58;100.00;69501.63;5033142;28;20067;-59
2024/01/03 01:29:18;;;;;;;33.78;6.80;;;;;;;-146.58;100.00;69501.63;5031281;28;20041;-58
2024/01/03 01:31:44;;;;;;;16.17;7.15;;;;;;;-146.58;100.00;69501.63;5032903;28;20029;-59
2024/01/03 01:34:10;;;;;;;17.58;5.70;;;;;;;-146.58;100.00;69501.63;5032940;28;20446;-59
2024/01/03 01:36:35;;;;;;;27.83;6.53;;;;;;;-146.58;100.00;69501.63;5033039;28;20100;-58
2024/01/03 01:39:01;;;;;;;26.45;7.03;;;;;;;-146.58;100.00;69501.63;5031497;28;20119;-59
2024/01/03 01:41:26;;;;;;;26.10;5.93;;;;;;;-146.58;100.00;69501.63;5032826;28;20354;-59
2024/01/03 01:43:53;;;;;;;21.90;7.43;;;;;;;-146.58;100.00;69501.63;5031638;28;20025;-59
2024/01/03 01:46:19;;;;;;;14.15;6.82;;;;;;;-146.58;100.00;69501.63;5032757;28;20389;-59
2024/01/03 01:48:46;;;;;;;18.63;6.30;;;;;;;-146.58;100.00;69501.63;5033854;28;20024;-58
2024/01/03 01:51:12;;;;;;;17.63;6.32;;;;;;;-146.58;100.00;69501.63;5052827;28;20090;-58
2024/01/03 01:53:38;;;;;;;27.80;6.70;;;;;;;-146.58;100.00;69501.63;5038960;28;20025;-58
2024/01/03 01:56:05;;;;;;;19.20;4.18;;;;;;;-146.58;100.00;69501.63;5032787;28;20029;-59
2024/01/03 01:58:30;;;;;;;19.80;6.32;;;;;;;-146.58;100.00;69501.63;5032354;28;20666;-59
2024/01/03 02:00:57;;;;;;;16.88;5.45;;;;;;;-146.58;100.00;69501.63;5031192;28;20065;-59
2024/01/03 02:03:23;;;;;;;16.33;4.40;;;;;;;-146.58;100.00;69501.63;5032430;28;20022;-59
2024/01/03 02:05:48;;;;;;;29.27;7.45;;;;;;;-146.58;100.00;69501.63;5031036;28;20424;-59
2024/01/03 02:08:16;;;;;;;21.30;6.50;;;;;;;-146.58;100.00;69501.63;5032472;28;20420;-59
2024/01/03 02:10:41;;;;;;;21.42;5.97;;;;;;;-146.58;100.00;69501.63;5030304;28;20080;-59
2024/01/03 02:13:06;;;;;;;18.42;5.25;;;;;;;-146.58;100.00;69501.63;5032597;28;20493;-59
2024/01/03 02:15:32;;;;;;;17.77;6.18;;;;;;;-146.58;100.00;69501.63;5030728;28;20057;-59
2024/01/03 02:17:59;;;;;;;28.17;6.05;;;;;;;-146.58;100.00;69501.63;5031935;28;20091;-59
2024/01/03 02:20:30;;;;;;;31.23;8.45;;;;;;;-146.58;100.00;69501.63;5030187;28;20483;-59
2024/01/03 02:22:55;;;;;;;23.75;6.78;;;;;;;-146.58;100.00;69501.63;5032442;28;20441;-59
2024/01/03 02:25:21;;;;;;;19.25;5.97;;;;;;;-146.58;100.00;69501.63;5045157;28;20041;-59
2024/01/03 02:27:46;;;;;;;17.75;5.63;;;;;;;-146.58;100.00;69501.63;5052222;28;20024;-59
2024/01/03 02:30:12;;;;;;;29.00;6.13;;;;;;;-146.58;100.00;69501.63;5050673;28;20110;-59
2024/01/03 02:32:37;;;;;;;12.68;4.97;;;;;;;-146.58;100.00;69501.63;5049683;28;20064;-59
2024/01/03 02:35:04;;;;;;;25.17;6.53;;;;;;;-146.58;100.00;69501.63;5050461;28;20041;-59
2024/01/03 02:37:30;;;;;;;23.55;4.70;;;;;;;-146.58;100.00;69501.63;5051394;28;20029;-59
2024/01/03 02:39:55;;;;;;;27.40;5.72;;;;;;;-146.58;100.00;69501.63;5050167;28;20037;-58
2024/01/03 02:42:21;;;;;;;25.45;7.05;;;;;;;-146.58;100.00;69501.63;5050811;28;20079;-58
2024/01/03 02:44:46;;;;;;;22.13;6.55;;;;;;;-146.58;100.00;69501.63;5042939;28;20052;-58
2024/01/03 02:47:11;;;;;;;34.90;8.00;;;;;;;-146.58;100.00;69501.63;5031617;28;20443;-59
2024/01/03 02:49:37;;;;;;;24.77;6.65;;;;;;;-146.58;100.00;69501.63;5030127;28;20044;-59
2024/01/03 02:52:02;;;;;;;14.68;5.03;;;;;;;-146.58;100.00;69501.63;5031604;28;20017;-59
2024/01/03 02:54:27;;;;;;;32.60;9.25;;;;;;;-146.58;100.00;69501.63;5037360;28;20041;-58
2024/01/03 02:56:57;;;;;;;25.45;6.35;;;;;;;-146.58;100.00;69501.63;5051523;28;20017;-58
2024/01/03 02:59:24;;;;;;;28.48;9.02;;;;;;;-146.58;100.00;69501.63;5050277;28;20029;-59
2024/01/03 03:01:49;;;;;;;25.48;7.90;;;;;;;-146.58;100.00;69501.63;5051061;28;20042;-58
2024/01/03 03:04:15;;;;;;;21.02;5.60;;;;;;;-146.58;100.00;69501.63;5049803;28;20032;-57
2024/01/03 03:06:40;;;;;;;21.38;5.05;;;;;;;-146.58;100.00;69501.63;5051107;28;20032;-59
2024/01/03 03:09:05;;;;;;;22.23;6.85;;;;;;;-146.58;100.00;69501.63;5049616;28;20488;-58
2024/01/03 03:11:31;;;;;;;22.02;7.13;;;;;;;-146.58;100.00;69501.63;5050945;28;20025;-58
2024/01/03 03:13:56;;;;;;;30.38;8.70;;;;;;;-146.58;100.00;69501.63;5031823;28;20041;-58
2024/01/03 03:16:21;;;;;;;19.33;4.85;;;;;;;-146.58;100.00;69501.63;5030740;28;20547;-58
2024/01/03 03:18:47;;;;;;;18.17;5.63;;;;;;;-146.58;100.00;69501.63;5029649;28;20036;-58
2024/01/03 03:21:12;;;;;;;21.67;7.15;;;;;;;-146.58;100.00;69501.63;5031215;28;20020;-58
2024/01/03 03:23:38;;;;;;;37.25;7.63;;;;;;;-146.58;100.00;69501.63;5029862;28;20029;-58
2024/01/03 03:26:03;;;;;;;20.10;7.70;;;;;;;-146.58;100.00;69501.63;5051289;28;20021;-58
2024/01/03 03:28:30;;;;;;;20.58;6.13;;;;;;;-146.58;100.00;69501.63;5051070;28;20063;-58
2024/01/03 03:30:55;;;;;;;30.50;9.45;;;;;;;-146.58;100.00;69501.63;5049155;28;20134;-58
2024/01/03 03:33:21;;;;;;;20.73;7.85;;;;;;;-146.58;100.00;69501.63;5051012;28;20030;-58
2024/01/03 03:35:46;;;;;;;20.67;5.43;;;;;;;-146.58;100.00;69501.63;5049172;28;20499;-58
2024/01/03 03:38:11;;;;;;;20.10;5.50;;;;;;;-146.58;100.00;69501.63;5050207;28;20029;-58
2024/01/03 03:40:37;;;;;;;22.75;6.97;;;;;;;-146.58;100.00;69501.63;5040770;28;20099;-58
2024/01/03 03:43:02;;;;;;;22.77;8.30;;;;;;;-146.58;100.00;69501.63;5030973;28;20022;-58
2024/01/03 03:45:27;;;;;;;18.83;5.55;;;;;;;-146.58;100.00;69501.63;5029149;28;20693;-58
2024/01/03 03:47:53;;;;;;;20.83;5.75;;;;;;;-146.58;100.00;69501.63;5031303;28;20500;-58
2024/01/03 03:50:18;;;;;;;23.73;7.68;;;;;;;-146.58;100.00;69501.63;5029356;28;20527;-58
2024/01/03 03:52:44;;;;;;;43.47;10.52;;;;;;;-146.58;100.00;69501.63;5032438;28;20040;-58
2024/01/03 03:55:11;;;;;;;17.95;6.70;;;;;;;-146.58;100.00;69501.63;5049135;28;20040;-58
2024/01/03 03:57:37;;;;;;;21.00;7.15;;;;;;;-146.58;100.00;69501.63;5057305;28;20064;-58
2024/01/03 04:00:05;;;;;;;33.78;9.48;;;;;;;-146.58;100.00;69501.63;5055356;28;20041;-58
2024/01/03 04:02:31;;;;;;;25.00;7.13;;;;;;;-146.58;100.00;69501.63;5056929;28;20067;-58
2024/01/03 04:04:56;;;;;;;28.13;7.78;;;;;;;-146.58;100.00;69501.63;5053472;28;20504;-58
2024/01/03 04:07:22;;;;;;;23.63;11.23;;;;;;;-146.58;100.00;69501.63;5057033;28;20028;-59
2024/01/03 04:09:47;;;;;;;53.05;10.40;;;;;;;-146.58;100.00;69501.63;5036428;28;20052;-58
2024/01/03 04:12:13;;;;;;;25.00;7.85;;;;;;;-146.58;100.00;69501.63;5037295;28;20025;-58
2024/01/03 04:14:38;;;;;;;25.73;7.82;;;;;;;-146.58;100.00;69501.63;5040104;28;20049;-59
2024/01/03 04:17:03;;;;;;;29.52;6.20;;;;;;;-146.58;100.00;69501.63;5057241;28;20020;-59
2024/01/03 04:19:30;;;;;;;20.00;6.30;;;;;;;-146.58;100.00;69501.63;5055285;28;20189;-58
2024/01/03 04:21:57;;;;;;;30.35;8.88;;;;;;;-146.58;100.00;69501.63;5056959;28;20074;-59
2024/01/03 04:24:22;;;;;;;22.33;7.03;;;;;;;-146.58;100.00;69501.63;5055686;28;20132;-59
2024/01/03 04:26:47;;;;;;;34.28;9.73;;;;;;;-146.58;100.00;69501.63;5057054;28;20427;-59
2024/01/03 04:29:13;;;;;;;38.58;7.55;;;;;;;-146.58;100.00;69501.63;5052303;28;20048;-59
2024/01/03 04:31:39;;;;;;;31.52;7.00;;;;;;;-146.58;100.00;69501.63;5037620;28;20029;-59
2024/01/03 04:34:04;;;;;;;24.10;5.68;;;;;;;-146.58;100.00;69501.63;5035657;28;20042;-59
2024/01/03 04:36:29;;;;;;;19.02;5.72;;;;;;;-146.58;100.00;69501.63;5036443;28;20029;-58
2024/01/03 04:38:55;;;;;;;34.67;8.63;;;;;;;-146.58;100.00;69501.63;5035416;28;20041;-59
2024/01/03 04:41:20;;;;;;;40.58;8.00;;;;;;;-146.58;100.00;69501.63;5037032;28;20029;-58
2024/01/03 04:43:46;;;;;;;35.28;6.50;;;;;;;-146.58;100.00;69501.63;5035369;28;20051;-58
2024/01/03 04:46:11;;;;;;;39.60;7.07;;;;;;;-146.58;100.00;69501.63;5056300;28;20025;-59
2024/01/03 04:48:36;;;;;;;32.50;7.32;;;;;;;-146.58;100.00;69501.63;5044362;28;20435;-58
2024/01/03 04:51:02;;;;;;;21.60;6.55;;;;;;;-146.58;100.00;69501.63;5036883;28;20033;-59
2024/01/03 04:53:27;;;;;;;35.63;8.60;;;;;;;-146.58;100.00;69501.63;5036572;28;20044;-59
2024/01/03 04:55:53;;;;;;;36.10;10.15;;;;;;;-146.58;100.00;69501.63;5035559;28;20048;-59
2024/01/03 04:58:18;;;;;;;24.85;7.40;;;;;;;-146.58;100.00;69501.63;5037235;28;20104;-59
2024/01/03 05:00:44;;;;;;;28.55;6.60;;;;;;;-146.58;100.00;69501.63;5052386;28;20424;-59
2024/01/03 05:03:11;;;;;;;34.40;8.57;;;;;;;-146.58;100.00;69501.63;5044716;28;20481;-59
2024/01/03 05:05:36;;;;;;;29.40;7.03;;;;;;;-146.58;100.00;69501.63;5031355;28;20045;-58
2024/01/03 05:08:02;;;;;;;21.98;8.18;;;;;;;-146.58;100.00;69501.63;5042973;28;20032;-58
2024/01/03 05:10:27;;;;;;;30.75;7.80;;;;;;;-146.58;100.00;69501.63;5051653;28;20041;-59
2024/01/03 05:12:53;;;;;;;36.22;9.43;;;;;;;-146.58;100.00;69501.63;5042992;28;20021;-59
2024/01/03 05:15:18;;;;;;;28.48;8.60;;;;;;;-146.58;100.00;69501.63;5031609;28;20046;-58
2024/01/03 05:17:44;;;;;;;21.00;7.20;;;;;;;-146.58;100.00;69501.63;5033463;28;20029;-59
2024/01/03 05:20:10;;;;;;;35.53;11.40;;;;;;;-146.58;100.00;69501.63;5032068;28;20037;-58
2024/01/03 05:22:35;;;;;;;28.25;9.10;;;;;;;-146.58;100.00;69501.63;5032262;28;20108;-58
2024/01/03 05:25:01;;;;;;;33.33;9.13;;;;;;;-146.58;100.00;69501.63;5031927;28;20048;-58
2024/01/03 05:27:26;;;;;;;30.40;8.88;;;;;;;-146.58;100.00;69501.63;5033902;28;20029;-59
2024/01/03 05:29:52;;;;;;;33.13;9.50;;;;;;;-146.58;100.00;69501.63;5031583;28;20045;-58
2024/01/03 05:32:18;;;;;;;39.55;11.25;;;;;;;-146.58;100.00;69501.63;5033053;28;20025;-58
2024/01/03 05:34:44;;;;;;;33.15;12.43;;;;;;;-146.58;100.00;69501.63;5031764;28;20404;-58
2024/01/03 05:37:10;;;;;;;41.10;12.43;;;;;;;-146.58;100.00;69501.63;5036678;28;20105;-58
2024/01/03 05:39:36;;;;;;;36.55;10.88;;;;;;;-146.58;100.00;69501.63;5038835;28;20528;-59
2024/01/03 05:42:02;;;;;;;32.45;12.40;;;;;;;-146.58;100.00;69501.63;5033641;28;20026;-58
2024/01/03 05:44:27;;;;;;;31.83;13.13;;;;;;;-146.58;100.00;69501.63;5031164;28;20052;-58
2024/01/03 05:46:52;;;;;;;28.30;9.35;;;;;;;-146.58;100.00;69501.63;5032606;28;20026;-58
2024/01/03 05:49:18;;;;;;;30.90;10.60;;;;;;;-146.58;100.00;69501.63;5031558;28;20038;-58
2024/01/03 05:51:43;;;;;;;26.38;8.90;;;;;;;-146.58;100.00;69501.63;5032209;28;20499;-58
2024/01/03 05:54:08;;;;;;;20.75;8.50;;;;;;;-146.58;100.00;69501.63;5031575;28;20033;-58
2024/01/03 05:56:34;;;;;;;27.85;9.82;;;;;;;-146.58;100.00;69501.63;5032565;28;20033;-58
2024/01/03 05:58:59;;;;;;;22.38;7.88;;;;;;;-146.58;100.00;69501.63;5030858;28;20024;-58
2024/01/03 06:01:24;;;;;;;35.20;9.52;;;;;;;-146.58;100.00;69501.63;5032576;28;20044;-58
2024/01/03 06:03:50;;;;;;;25.92;7.72;;;;;;;-146.58;100.00;69501.63;5031648;28;20040;-58
2024/01/03 06:06:16;;;;;;;17.60;8.27;;;;;;;-146.58;100.00;69501.63;5032369;28;20018;-59
2024/01/03 06:08:41;;;;;;;13.68;6.60;;;;;;;-146.58;100.00;69501.63;5031208;28;20021;-56
2024/01/03 06:11:09;;;;;;;20.00;6.32;;;;;;;-146.58;100.00;69501.63;5032654;28;20393;-58
2024/01/03 06:13:34;;;;;;;20.33;7.50;;;;;;;-146.58;100.00;69501.63;5032421;28;20029;-58
2024/01/03 06:16:00;;;;;;;17.40;5.78;;;;;;;-146.58;100.00;69501.63;5030776;28;20551;-58
2024/01/03 06:18:25;;;;;;;24.13;6.65;;;;;;;-146.58;100.00;69501.63;5032337;28;20071;-58
2024/01/03 06:20:50;;;;;;;22.88;7.35;;;;;;;-146.58;100.00;69501.63;5030379;28;20515;-58
2024/01/03 06:23:16;;;;;;;25.50;5.68;;;;;;;-146.58;100.00;69501.63;5032273;28;20266;-58
2024/01/03 06:25:41;;;;;;;20.58;7.18;;;;;;;-146.58;100.00;69501.63;5030617;28;20072;-58
2024/01/03 06:28:06;;;;;;;11.25;6.00;;;;;;;-146.58;100.00;69501.63;5031879;28;20021;-58
2024/01/03 06:30:32;;;;;;;30.52;7.65;;;;;;;-146.58;100.00;69501.63;5030601;28;20479;-58
2024/01/03 06:32:57;;;;;;;29.08;7.68;;;;;;;-146.58;100.00;69501.63;5032038;28;20021;-58
2024/01/03 06:35:22;;;;;;;25.83;8.10;;;;;;;-146.58;100.00;69501.63;5030149;28;20041;-58
2024/01/03 06:37:48;;;;;;;13.98;6.03;;;;;;;-146.58;100.00;69501.63;5031669;28;20056;-58
2024/01/03 06:40:14;;;;;;;13.95;4.40;;;;;;;-146.58;100.00;69501.63;5030470;28;20053;-58
2024/01/03 06:42:40;;;;;;;19.40;5.75;;;;;;;-146.58;100.00;69501.63;5031475;28;20021;-58
2024/01/03 06:45:06;;;;;;;17.40;5.35;;;;;;;-146.58;100.00;69501.63;5030518;28;20080;-57
2024/01/03 06:47:31;;;;;;;25.02;6.75;;;;;;;-146.58;100.00;69501.63;5031892;28;20033;-58
2024/01/03 06:49:57;;;;;;;18.00;5.50;;;;;;;-146.58;100.00;69501.63;5030078;28;20045;-58
2024/01/03 06:52:22;;;;;;;19.60;5.47;;;;;;;-146.58;100.00;69501.63;5031787;28;20104;-58
2024/01/03 06:54:49;;;;;;;18.25;4.97;;;;;;;-146.58;100.00;69501.63;5030327;28;20084;-58
2024/01/03 06:57:15;;;;;;;19.38;5.68;;;;;;;-146.58;100.00;69501.63;5031505;28;20084;-58
2024/01/03 06:59:40;;;;;;;10.38;4.13;;;;;;;-146.58;100.00;69501.63;5029594;28;20038;-59
2024/01/03 07:02:05;;;;;;;8.82;4.60;;;;;;;-146.58;100.00;69501.63;5031583;28;20017;-58
2024/01/03 07:04:31;;;;;;;19.50;5.13;;;;;;;-146.58;100.00;69501.63;5029928;28;20044;-58
2024/01/03 07:06:57;;;;;;;14.32;5.80;;;;;;;-146.58;100.00;69501.63;5031506;28;20025;-58
2024/01/03 07:09:22;;;;;;;11.48;4.60;;;;;;;-146.58;100.00;69501.63;5030106;28;20041;-58
2024/01/03 07:11:48;;;;;;;8.15;4.03;;;;;;;-146.58;100.00;69501.63;5031005;28;20116;-58
2024/01/03 07:14:13;;;;;;;14.05;5.88;;;;;;;-146.58;100.00;69501.63;5029640;28;20029;-58
2024/01/03 07:16:41;;;;;;;12.10;6.70;;;;;;;-146.58;100.00;69501.63;5031248;28;20052;-58
2024/01/03 07:19:07;;;;;;;15.35;4.47;;;;;;;-146.58;100.00;69501.63;5029559;28;20045;-59
2024/01/03 07:21:35;;;;;;;5.80;3.15;;;;;;;-146.58;100.00;69501.63;5030634;28;20063;-59
2024/01/03 07:24:00;;;;;;;12.18;5.28;;;;;;;-146.58;100.00;69501.63;5030045;28;20121;-59
2024/01/03 07:26:26;;;;;;;7.28;4.80;;;;;;;-146.58;100.00;69501.63;5030754;28;20035;-59
2024/01/03 07:28:51;;;;;;;7.60;3.60;;;;;;;-146.58;100.00;69501.63;5028902;28;20017;-59
2024/01/03 07:31:17;;;;;;;11.10;3.72;;;;;;;-146.58;100.00;69501.63;5031112;28;20616;-59
2024/01/03 07:33:42;;;;;;;15.52;4.57;;;;;;;-146.58;100.00;69501.63;5029794;28;20075;-58
2024/01/03 07:36:08;;;;;;;15.55;6.00;;;;;;;-146.58;100.00;69501.63;5030729;28;20032;-58
2024/01/03 07:38:33;;;;;;;13.10;4.93;;;;;;;-146.58;100.00;69501.63;5030735;28;20033;-59
2024/01/03 07:40:59;;;;;;;6.30;3.20;;;;;;;-146.58;100.00;69501.63;5029642;28;20120;-59
2024/01/03 07:43:26;;;;;;;11.13;5.53;;;;;;;-146.58;100.00;69501.63;5030475;28;20116;-59
2024/01/03 07:45:51;;;;;;;7.07;2.78;;;;;;;-146.58;100.00;69501.63;5029810;28;20061;-59
2024/01/03 07:48:17;;;;;;;10.70;3.42;;;;;;;-146.58;100.00;69501.63;5031158;28;20452;-59
2024/01/03 07:50:42;;;;;;;8.15;2.83;;;;;;;-146.58;100.00;69501.63;5029060;28;20049;-59
2024/01/03 07:53:08;;;;;;;4.72;2.65;;;;;;;-146.58;100.00;69501.63;5030795;28;20159;-58
2024/01/03 07:55:33;;;;;;;7.53;3.60;;;;;;;-146.58;100.00;69501.63;5029135;28;20045;-59
2024/01/03 07:57:58;;;;;;;9.35;3.22;;;;;;;-146.58;100.00;69501.63;5030463;28;20032;-58
2024/01/03 08:00:24;;;;;;;8.27;3.67;;;;;;;-146.58;100.00;69501.63;5027586;28;20064;-58
2024/01/03 08:02:49;;;;;;;4.57;2.30;;;;;;;-146.58;100.00;69501.63;5029890;28;20028;-59
2024/01/03 08:05:14;;;;;;;8.15;3.45;;;;;;;-146.58;100.00;69501.63;5028881;28;20504;-59
2024/01/03 08:07:40;;;;;;;2.72;1.70;;;;;;;-146.58;100.00;69501.63;5030415;28;20021;-58
2024/01/03 08:10:06;;;;;;;3.90;1.83;;;;;;;-146.58;100.00;69501.63;5029084;28;20048;-59
2024/01/03 08:12:31;;;;;;;4.28;2.30;;;;;;;-146.58;100.00;69501.63;5029937;28;20112;-58
2024/01/03 08:14:56;;;;;;;4.13;2.03;;;;;;;-146.58;100.00;69501.63;5029172;28;20408;-58
2024/01/03 08:17:22;;;;;;;5.65;2.28;;;;;;;-146.58;100.00;69501.63;5030829;28;20033;-58
2024/01/03 08:19:47;;;;;;;6.10;2.33;;;;;;;-146.58;100.00;69501.63;5028548;28;20045;-59
2024/01/03 08:22:13;;;;;;;5.28;2.95;;;;;;;-146.58;100.00;69501.63;5030331;28;20024;-59
2024/01/03 08:24:38;;;;;;;4.88;2.15;;;;;;;-146.58;100.00;69501.63;5026804;28;20045;-58
2024/01/03 08:27:04;;;;;;;2.00;1.90;;;;;;;-146.58;100.00;69501.63;5029684;28;20022;-59
2024/01/03 08:29:30;;;;;;;5.75;2.67;;;;;;;-146.58;100.00;69501.63;5028897;28;20041;-58
2024/01/03 08:31:55;;;;;;;5.85;2.20;;;;;;;-146.58;100.00;69501.63;5030580;28;20063;-58
2024/01/03 08:34:21;;;;;;;6.53;2.50;;;;;;;-146.58;100.00;69501.63;5027767;28;20037;-58
2024/01/03 08:36:46;;;;;;;5.07;2.70;;;;;;;-146.58;100.00;69501.63;5030168;28;20036;-58
2024/01/03 08:39:12;;;;;;;6.80;2.63;;;;;;;-146.58;100.00;69501.63;5028888;28;20041;-58
2024/01/03 08:41:38;;;;;;;1.67;1.45;;;;;;;-146.58;100.00;69501.63;5033754;28;20037;-58
2024/01/03 08:44:05;;;;;;;4.95;1.80;;;;;;;-146.58;100.00;69501.63;5033030;28;20045;-58
2024/01/03 08:46:40;;;;;;;2.03;1.92;;;;;;;-146.58;100.00;69501.63;5034158;28;20049;-58
2024/01/03 08:49:06;;;;;;;3.42;2.38;;;;;;;-146.58;100.00;69501.63;5032380;28;20414;-59
2024/01/03 08:51:32;;;;;;;6.53;2.65;;;;;;;-146.58;100.00;69501.63;5033712;28;20025;-58
2024/01/03 08:53:58;;;;;;;5.50;3.15;;;;;;;-146.58;100.00;69501.63;5032588;28;20103;-58
2024/01/03 08:56:23;;;;;;;10.63;2.97;;;;;;;-146.58;100.00;69501.63;5033793;28;20435;-58
2024/01/03 08:58:49;;;;;;;15.43;3.85;;;;;;;-146.58;100.00;69501.63;5032262;28;20468;-58
2024/01/03 09:01:16;;;;;;;5.70;2.83;;;;;;;-146.58;100.00;69501.63;5033695;28;20024;-58
2024/01/03 09:03:42;;;;;;;9.23;2.60;;;;;;;-146.58;100.00;69501.63;5032145;28;20021;-58
2024/01/03 09:06:07;;;;;;;3.35;2.03;;;;;;;-146.58;100.00;69501.63;5033808;28;20021;-59
2024/01/03 09:08:32;;;;;;;6.40;2.45;;;;;;;-146.58;100.00;69501.63;5033511;28;20044;-59
2024/01/03 09:10:58;;;;;;;6.20;2.80;;;;;;;-146.58;100.00;69501.63;5031760;28;20073;-58
2024/01/03 09:13:23;;;;;;;10.20;3.40;;;;;;;-146.58;100.00;69501.63;5033646;28;20021;-59
2024/01/03 09:15:49;;;;;;;8.02;3.35;;;;;;;-146.58;100.00;69501.63;5032033;28;20050;-58
2024/01/03 09:18:14;;;;;;;7.40;3.53;;;;;;;-146.58;100.00;69501.63;5033251;28;20052;-59
2024/01/03 09:20:40;;;;;;;10.45;4.78;;;;;;;-146.58;100.00;69501.63;5031738;28;20041;-58
2024/01/03 09:23:05;;;;;;;15.00;4.00;;;;;;;-146.58;100.00;69501.63;5031659;28;20461;-58
2024/01/03 09:25:30;;;;;;;12.18;4.13;;;;;;;-146.58;100.00;69501.63;5031082;28;20061;-58
2024/01/03 09:27:56;;;;;;;12.52;3.60;;;;;;;-146.58;100.00;69501.63;5033107;28;20488;-58
2024/01/03 09:30:21;;;;;;;7.95;3.38;;;;;;;-146.58;100.00;69501.63;5031714;28;20041;-59
2024/01/03 09:32:50;;;;;;;13.82;5.93;;;;;;;-146.58;100.00;69501.63;5032136;28;20465;-59
2024/01/03 09:35:15;;;;;;;19.55;4.47;;;;;;;-146.58;100.00;69501.63;5030375;28;20092;-58
2024/01/03 09:37:40;;;;;;;13.65;4.20;;;;;;;-146.58;100.00;69501.63;5032789;28;20061;-59
2024/01/03 09:40:09;;;;;;;8.18;3.40;;;;;;;-146.58;100.00;69501.63;5031486;28;20077;-58
2024/01/03 09:42:36;;;;;;;8.77;3.70;;;;;;;-146.58;100.00;69501.63;5033156;28;20440;-59
2024/01/03 09:45:02;;;;;;;11.55;3.58;;;;;;;-146.58;100.00;69501.63;5031623;28;20519;-58
2024/01/03 09:47:27;;;;;;;9.52;3.92;;;;;;;-146.58;100.00;69501.63;5032523;28;20029;-59
2024/01/03 09:49:53;;;;;;;13.23;4.78;;;;;;;-146.58;100.00;69501.63;5031277;28;20034;-58
2024/01/03 09:52:19;;;;;;;8.48;4.20;;;;;;;-146.58;100.00;69501.63;5032458;28;20087;-58
2024/01/03 09:54:44;;;;;;;21.00;6.82;;;;;;;-146.58;100.00;69501.63;5029984;28;20097;-59
2024/01/03 09:57:11;;;;;;;15.55;4.85;;;;;;;-146.58;100.00;69501.63;5032582;28;20022;-58
2024/01/03 09:59:37;;;;;;;9.10;4.00;;;;;;;-146.58;100.00;69501.63;5031012;28;20048;-58
2024/01/03 10:02:02;;;;;;;11.35;5.32;;;;;;;-146.58;100.00;69501.63;5032742;28;20032;-59
2024/01/03 10:04:28;;;;;;;6.40;5.10;;;;;;;-146.58;100.00;69501.63;5030878;28;20045;-58
2024/01/03 10:06:54;;;;;;;5.93;4.40;;;;;;;-146.58;100.00;69501.63;5032597;28;20076;-58
2024/01/03 10:09:21;;;;;;;9.65;5.10;;;;;;;-146.58;100.00;69501.63;5031214;28;20493;-58
2024/01/03 10:11:51;;;;;;;11.88;6.30;;;;;;;-146.58;100.00;69501.63;5032137;28;20361;-58
2024/01/03 10:14:18;;;;;;;10.35;4.18;;;;;;;-146.58;100.00;69501.63;5031189;28;20036;-59
2024/01/03 10:16:44;;;;;;;7.30;6.13;;;;;;;-146.58;100.00;69501.63;5032300;28;20036;-58
2024/01/03 10:19:19;;;;;;;12.07;5.30;;;;;;;-146.58;100.00;69501.63;5030697;28;20041;-58
2024/01/03 10:21:53;;;;;;;10.43;4.50;;;;;;;-146.58;100.00;69501.63;5031978;28;20029;-58
2024/01/03 10:24:20;;;;;;;11.15;5.25;;;;;;;-146.58;100.00;69501.63;5031047;28;20041;-59
2024/01/03 10:26:46;;;;;;;8.57;6.97;;;;;;;-146.58;100.00;69501.63;5027568;28;20022;-58
2024/01/03 10:29:16;;;;;;;10.75;4.13;;;;;;;-146.58;100.00;69501.63;5030843;28;20052;-58
2024/01/03 10:31:42;;;;;;;13.15;5.28;;;;;;;-146.58;100.00;69501.63;5031846;28;20021;-58
2024/01/03 10:34:12;;;;;;;16.33;6.45;;;;;;;-146.58;100.00;69501.63;5030234;28;20519;-58
2024/01/03 10:36:39;;;;;;;12.95;4.97;;;;;;;-146.58;100.00;69501.63;5031808;28;20029;-58
2024/01/03 10:39:05;;;;;;;13.45;5.43;;;;;;;-146.58;100.00;69501.63;5030545;28;20128;-58
2024/01/03 10:41:34;;;;;;;9.75;5.75;;;;;;;-146.58;100.00;69501.63;5031306;28;20037;-58
2024/01/03 10:44:01;;;;;;;18.75;5.97;;;;;;;-146.58;100.00;69501.63;5030374;28;20464;-58
2024/01/03 10:46:29;;;;;;;11.20;5.32;;;;;;;-146.58;100.00;69501.63;5031702;28;20021;-58
2024/01/03 10:48:55;;;;;;;;;;;;;;;-146.58;100.00;69501.63;5030652;28;20037;-58
2024/01/03 10:51:25;;;;;;;18.17;6.53;;;;;;;-146.58;100.00;69501.63;5031856;28;19920;-59
2024/01/03 10:53:53;;;;;;;9.60;6.20;;;;;;;-146.58;100.00;69501.63;5030432;28;20021;-59
2024/01/03 10:56:18;;;;;;;22.00;7.32;;;;;;;-146.58;100.00;69501.63;5029649;28;20030;-58